Whitney Point, New York
Current Conditions -  °F | °C
As of 12:53 PM on Thursday 29 Jan 2015 (Local Time) from KBGM Reporting Station
Overcast Overcast  
Wind Chill: 16°   Ceiling: 8000
Heat Index: 27°   Visibility: 10mi
Dew Point:   Wind: 14mph
Humidity: 36%   Direction: 150°SSE
Pressure: 29.96"   Gusts: 21mph
Location:  42.33°N, 75.97°W
Report Text: KBGM 291753Z 15012G18KT 10SM FEW049 SCT065 OVC080 M03/M16 A2996 RMK AO2 PRESFR SLP172 T10281161 11028 21161 58050
Loading
Personal Weather Stations






























Interactive Weather Map New forecast layout! Learn more

10-Day Weather Forecast

Advertisements
Track Severe Weather on mobile